Time;durP1;ratioP1;P1;durP2;ratioP2;P2;SDS_P1;SDS_P2;PMS_P1;PMS_P2;Temp;Humidity;BMP_temperature;BMP_pressure;BME280_temperature;BME280_humidity;BME280_pressure;Samples;Min_cycle;Max_cycle;Signal;HPM_P1;HPM_P2
2022/06/19 00:02:08;;;;;;;9.15;2.05;;;25.20;78.30;;;;;;5049822;28;20372;-72
2022/06/19 00:04:33;;;;;;;5.78;1.60;;;25.00;75.40;;;;;;5013932;28;20055;-68
2022/06/19 00:06:59;;;;;;;6.43;1.73;;;25.20;75.40;;;;;;5028190;28;20419;-78
2022/06/19 00:09:26;;;;;;;5.75;1.92;;;25.00;78.00;;;;;;5048613;28;20483;-76
2022/06/19 00:11:52;;;;;;;7.03;1.80;;;25.10;78.30;;;;;;5049037;28;20049;-68
2022/06/19 00:14:18;;;;;;;4.80;1.65;;;;;;;;;;5050039;28;20399;-68
2022/06/19 00:16:44;;;;;;;6.40;2.00;;;25.10;74.00;;;;;;5049305;28;20057;-68
2022/06/19 00:19:10;;;;;;;6.07;1.90;;;25.10;74.90;;;;;;5053116;28;20091;-69
2022/06/19 00:21:36;;;;;;;8.93;2.78;;;24.90;77.70;;;;;;5034906;28;20457;-68
2022/06/19 00:24:02;;;;;;;6.72;1.73;;;;;;;;;;5049920;28;20045;-68
2022/06/19 00:26:28;;;;;;;6.70;2.05;;;25.00;77.10;;;;;;5051392;28;20033;-73
2022/06/19 00:28:53;;;;;;;6.90;1.77;;;25.00;75.10;;;;;;5052969;28;20045;-69
2022/06/19 00:31:19;;;;;;;6.65;1.80;;;25.00;75.10;;;;;;5053426;28;20122;-75
2022/06/19 00:33:45;;;;;;;6.43;1.90;;;25.20;75.30;;;;;;5051412;28;20057;-78
2022/06/19 00:36:11;;;;;;;8.13;2.10;;;25.30;78.20;;;;;;5053518;28;20041;-84
2022/06/19 00:38:36;;;;;;;4.78;1.75;;;25.10;75.00;;;;;;5032156;28;20069;-77
2022/06/19 00:41:02;;;;;;;6.95;1.77;;;25.20;78.70;;;;;;5052271;28;20052;-80
2022/06/19 00:43:28;;;;;;;6.38;1.77;;;25.00;75.00;;;;;;5050666;28;20048;-76
2022/06/19 00:45:54;;;;;;;9.27;2.10;;;25.10;78.00;;;;;;5050750;28;20040;-74
2022/06/19 00:48:32;;;;;;;5.03;1.77;;;24.90;75.00;;;;;;5018317;28;20138;-72
2022/06/19 00:51:04;;;;;;;5.00;1.52;;;25.10;77.90;;;;;;5052190;28;20120;-71
2022/06/19 00:53:36;;;;;;;5.82;1.33;;;25.10;77.90;;;;;;5050017;28;20104;-68
2022/06/19 00:56:02;;;;;;;4.67;1.60;;;24.80;77.70;;;;;;5034747;28;20135;-73
2022/06/19 00:58:32;;;;;;;6.90;1.75;;;25.10;77.80;;;;;;5014922;28;20080;-66
2022/06/19 01:01:18;;;;;;;8.85;2.00;;;24.80;75.10;;;;;;5033849;28;20082;-67
2022/06/19 01:04:02;;;;;;;8.93;1.83;;;25.20;75.80;;;;;;5046475;28;20045;-68
2022/06/19 01:06:28;;;;;;;6.07;1.90;;;25.30;74.10;;;;;;5064143;28;20053;-70
2022/06/19 01:08:55;;;;;;;6.32;2.10;;;25.10;75.10;;;;;;5035119;28;20045;-75
2022/06/19 01:11:21;;;;;;;5.70;1.55;;;25.10;78.10;;;;;;5036354;28;20111;-79
2022/06/19 01:13:47;;;;;;;6.18;1.75;;;25.00;75.50;;;;;;5019862;28;20206;-78
2022/06/19 01:16:16;;;;;;;6.80;1.95;;;25.10;77.80;;;;;;5016642;28;20409;-71
2022/06/19 01:18:42;;;;;;;5.85;1.48;;;24.80;74.10;;;;;;5020443;28;20577;-72
2022/06/19 01:21:11;;;;;;;6.85;1.77;;;25.00;74.80;;;;;;5034997;28;20065;-71
2022/06/19 01:23:58;;;;;;;5.15;1.60;;;25.00;74.90;;;;;;5050679;28;20094;-71
2022/06/19 01:26:24;;;;;;;5.78;1.67;;;25.00;78.00;;;;;;5047532;28;20128;-68
2022/06/19 01:28:59;;;;;;;6.43;1.90;;;24.90;74.80;;;;;;5035356;28;20120;-69
2022/06/19 01:31:27;;;;;;;4.53;1.25;;;24.80;77.80;;;;;;5050916;28;20045;-67
2022/06/19 01:33:56;;;;;;;8.98;2.17;;;25.10;75.30;;;;;;5052483;28;20120;-67
2022/06/19 01:36:22;;;;;;;6.05;1.70;;;25.10;78.60;;;;;;5047969;28;20041;-69
2022/06/19 01:38:50;;;;;;;4.72;2.00;;;25.00;75.00;;;;;;5035636;28;20045;-69
2022/06/19 01:41:19;;;;;;;3.88;1.63;;;24.80;78.60;;;;;;5011637;28;20053;-69
2022/06/19 01:43:47;;;;;;;5.40;2.20;;;25.10;75.60;;;;;;5010268;28;20037;-69
2022/06/19 01:46:13;;;;;;;6.80;2.33;;;25.10;78.10;;;;;;5032845;28;20049;-68
2022/06/19 01:48:39;;;;;;;8.10;2.35;;;24.90;78.00;;;;;;5050757;28;20049;-67
2022/06/19 01:51:05;;;;;;;6.43;1.95;;;25.20;75.10;;;;;;5053074;28;20091;-68
2022/06/19 01:53:54;;;;;;;7.13;1.73;;;25.10;78.10;;;;;;5017550;28;20044;-68
2022/06/19 01:56:20;;;;;;;6.13;1.77;;;25.10;74.20;;;;;;5034470;28;20829;-74
2022/06/19 01:58:50;;;;;;;11.02;2.08;;;24.90;78.20;;;;;;5045450;28;20044;-79
2022/06/19 02:01:16;;;;;;;7.03;1.92;;;24.90;78.50;;;;;;5051501;28;20542;-73
2022/06/19 02:03:55;;;;;;;7.18;1.73;;;25.00;78.10;;;;;;5050350;28;20124;-70
2022/06/19 02:06:26;;;;;;;11.13;2.00;;;24.80;75.60;;;;;;5030507;28;20116;-66
2022/06/19 02:08:52;;;;;;;8.25;2.25;;;24.80;78.30;;;;;;5032011;28;20053;-76
2022/06/19 02:11:18;;;;;;;9.70;2.00;;;25.10;78.90;;;;;;5016083;28;20049;-68
2022/06/19 02:13:44;;;;;;;7.32;2.13;;;24.90;75.10;;;;;;5017604;28;20091;-70
2022/06/19 02:16:12;;;;;;;6.22;1.70;;;25.00;75.40;;;;;;5035186;28;20056;-67
2022/06/19 02:18:40;;;;;;;9.70;2.53;;;24.70;78.50;;;;;;5015388;28;20487;-67
2022/06/19 02:21:06;;;;;;;7.90;1.88;;;24.90;79.30;;;;;;5033041;28;20117;-67
2022/06/19 02:23:36;;;;;;;8.02;2.17;;;24.80;78.90;;;;;;5048804;28;20064;-67
2022/06/19 02:26:07;;;;;;;6.10;1.50;;;24.60;78.40;;;;;;5034096;28;20052;-68
2022/06/19 02:28:36;;;;;;;7.78;2.17;;;24.90;76.10;;;;;;5067866;28;20548;-69
2022/06/19 02:31:02;;;;;;;8.85;2.40;;;24.80;79.00;;;;;;5030987;28;20164;-66
2022/06/19 02:33:28;;;;;;;8.90;2.38;;;24.60;78.30;;;;;;5016439;28;20064;-71
2022/06/19 02:35:54;;;;;;;7.80;2.05;;;24.70;79.00;;;;;;5017942;28;20394;-68
2022/06/19 02:38:20;;;;;;;4.65;1.88;;;24.90;78.80;;;;;;5050232;28;20043;-75
2022/06/19 02:41:23;;;;;;;6.47;2.13;;;24.70;75.70;;;;;;5029278;28;20040;-76
2022/06/19 02:43:49;;;;;;;6.45;1.88;;;24.60;75.00;;;;;;5035050;28;20109;-68
2022/06/19 02:46:14;;;;;;;7.22;2.13;;;24.90;79.30;;;;;;5049937;28;20171;-68
2022/06/19 02:48:40;;;;;;;6.75;2.17;;;24.60;78.70;;;;;;5033790;28;20053;-68
2022/06/19 02:51:06;;;;;;;6.80;1.75;;;24.60;75.70;;;;;;5049248;28;20179;-68
2022/06/19 02:53:31;;;;;;;7.10;1.73;;;24.60;78.80;;;;;;5051941;28;20475;-67
2022/06/19 02:55:58;;;;;;;7.22;2.13;;;24.50;79.20;;;;;;5049212;28;20070;-68
2022/06/19 02:58:24;;;;;;;6.32;2.05;;;24.60;79.10;;;;;;5048931;28;20044;-69
2022/06/19 03:00:50;;;;;;;7.63;2.25;;;24.50;79.00;;;;;;5032235;28;20084;-68
2022/06/19 03:03:19;;;;;;;7.53;2.10;;;24.40;76.00;;;;;;5047508;28;20041;-68
2022/06/19 03:05:45;;;;;;;6.38;2.00;;;24.80;76.60;;;;;;5048981;28;20056;-70
2022/06/19 03:08:11;;;;;;;6.75;1.95;;;24.60;76.30;;;;;;5050667;28;20047;-67
2022/06/19 03:10:37;;;;;;;7.30;2.47;;;24.90;76.40;;;;;;5051873;28;20487;-70
2022/06/19 03:13:03;;;;;;;9.55;2.15;;;24.70;79.20;;;;;;5046526;28;20049;-68
2022/06/19 03:15:28;;;;;;;7.43;2.00;;;24.40;79.30;;;;;;5048828;28;20127;-67
2022/06/19 03:17:54;;;;;;;7.25;1.88;;;24.60;79.10;;;;;;5048301;28;20074;-67
2022/06/19 03:20:21;;;;;;;6.88;1.75;;;24.80;79.80;;;;;;5051616;28;20056;-67
2022/06/19 03:22:47;;;;;;;6.70;1.70;;;24.70;79.30;;;;;;5048760;28;20045;-68
2022/06/19 03:25:13;;;;;;;8.38;2.38;;;24.60;79.20;;;;;;5049491;28;20078;-68
2022/06/19 03:27:39;;;;;;;5.55;1.85;;;24.70;76.30;;;;;;5049959;28;20037;-69
2022/06/19 03:30:05;;;;;;;6.90;1.90;;;24.70;79.50;;;;;;5050074;28;20037;-66
2022/06/19 03:32:31;;;;;;;7.53;2.20;;;24.50;79.00;;;;;;5041569;28;20221;-67
2022/06/19 03:34:57;;;;;;;9.18;2.22;;;24.40;76.10;;;;;;5050326;28;20070;-68
2022/06/19 03:37:22;;;;;;;9.15;1.80;;;24.50;79.30;;;;;;5040516;28;20055;-76
2022/06/19 03:39:48;;;;;;;9.20;2.17;;;24.70;76.40;;;;;;5050236;28;20052;-79
2022/06/19 03:42:14;;;;;;;8.23;2.42;;;24.50;76.50;;;;;;5051515;28;20037;-68
2022/06/19 03:44:40;;;;;;;7.22;2.20;;;24.40;79.40;;;;;;5048125;28;20053;-67
2022/06/19 03:47:06;;;;;;;7.65;1.90;;;24.60;76.60;;;;;;5050934;28;20049;-67
2022/06/19 03:49:32;;;;;;;6.20;1.98;;;24.50;79.60;;;;;;5048580;28;20062;-67
2022/06/19 03:51:58;;;;;;;6.60;1.90;;;24.60;76.60;;;;;;5050731;28;20134;-67
2022/06/19 03:54:24;;;;;;;6.63;2.30;;;24.40;76.50;;;;;;5047848;28;20077;-67
2022/06/19 03:56:50;;;;;;;8.77;1.98;;;24.40;79.80;;;;;;5047799;28;20405;-69
2022/06/19 03:59:15;;;;;;;8.85;1.98;;;24.50;76.60;;;;;;5049301;28;20049;-67
2022/06/19 04:01:41;;;;;;;7.65;1.70;;;24.50;79.50;;;;;;5048218;28;20083;-68
2022/06/19 04:04:08;;;;;;;8.93;2.20;;;24.40;76.50;;;;;;5051363;28;20040;-66
2022/06/19 04:06:35;;;;;;;9.23;2.15;;;24.30;76.70;;;;;;5043899;28;20041;-70
2022/06/19 04:09:01;;;;;;;6.45;2.05;;;24.40;79.90;;;;;;5063671;28;20502;-76
2022/06/19 04:11:28;;;;;;;10.07;2.35;;;24.20;76.80;;;;;;5016313;28;20052;-70
2022/06/19 04:13:54;;;;;;;8.35;2.20;;;;;;;;;;5029869;28;20372;-71
2022/06/19 04:16:22;;;;;;;9.80;2.28;;;24.00;74.60;;;;;;5031517;28;20045;-67
2022/06/19 04:18:51;;;;;;;9.18;2.90;;;24.10;76.90;;;;;;5049814;28;20053;-67
2022/06/19 04:21:18;;;;;;;9.10;2.22;;;24.00;79.60;;;;;;5014413;28;20091;-67
2022/06/19 04:23:44;;;;;;;9.30;2.53;;;24.10;77.00;;;;;;5032430;28;20131;-67
2022/06/19 04:26:11;;;;;;;7.57;2.05;;;24.10;79.60;;;;;;5026479;28;20152;-68
2022/06/19 04:28:37;;;;;;;10.52;2.20;;;24.20;77.00;;;;;;5049724;28;20072;-68
2022/06/19 04:31:03;;;;;;;7.72;2.00;;;23.90;79.80;;;;;;5050713;28;20080;-67
2022/06/19 04:33:29;;;;;;;7.47;2.33;;;23.90;80.00;;;;;;5048439;28;20076;-67
2022/06/19 04:35:55;;;;;;;6.70;2.00;;;;;;;;;;5046366;28;20048;-68
2022/06/19 04:38:20;;;;;;;9.65;2.38;;;24.10;79.80;;;;;;5046686;28;20103;-69
2022/06/19 04:40:46;;;;;;;8.20;2.15;;;24.10;77.00;;;;;;5049964;28;20438;-68
2022/06/19 04:43:12;;;;;;;6.75;2.20;;;24.10;76.60;;;;;;5049309;28;20081;-69
2022/06/19 04:45:38;;;;;;;6.10;1.80;;;24.00;79.80;;;;;;5048829;28;20096;-67
2022/06/19 04:48:05;;;;;;;7.90;2.10;;;24.10;76.90;;;;;;5065275;28;20073;-67
2022/06/19 04:50:31;;;;;;;7.50;2.25;;;23.80;79.70;;;;;;5031478;28;20092;-68
2022/06/19 04:52:56;;;;;;;6.63;2.15;;;23.90;80.20;;;;;;5049479;28;20481;-68
2022/06/19 04:55:22;;;;;;;6.30;1.98;;;23.90;79.80;;;;;;5049150;28;20045;-67
2022/06/19 04:57:48;;;;;;;8.20;2.55;;;23.90;79.80;;;;;;5042698;28;20040;-68
2022/06/19 05:00:15;;;;;;;6.13;1.90;;;23.80;79.70;;;;;;5048003;28;20037;-68
2022/06/19 05:02:41;;;;;;;6.70;1.88;;;24.00;78.60;;;;;;5032218;28;20105;-70
2022/06/19 05:05:08;;;;;;;7.80;2.42;;;23.90;76.90;;;;;;5027942;28;20088;-66
2022/06/19 05:07:34;;;;;;;8.20;2.38;;;23.80;76.90;;;;;;5066709;28;20045;-68
2022/06/19 05:09:59;;;;;;;7.03;1.90;;;23.90;79.80;;;;;;5050962;28;20115;-69
2022/06/19 05:12:26;;;;;;;8.60;1.90;;;23.80;79.60;;;;;;5053221;28;20045;-68
2022/06/19 05:14:53;;;;;;;7.47;2.10;;;24.00;80.10;;;;;;5050122;28;20033;-69
2022/06/19 05:17:19;;;;;;;9.02;2.17;;;24.20;79.80;;;;;;5044968;28;20041;-68
2022/06/19 05:19:45;;;;;;;6.85;1.75;;;24.00;79.80;;;;;;5051308;28;20046;-68
2022/06/19 05:22:11;;;;;;;7.13;1.85;;;24.10;79.50;;;;;;5052129;28;20499;-68
2022/06/19 05:24:37;;;;;;;7.15;1.90;;;24.10;76.10;;;;;;5053518;28;20052;-67
2022/06/19 05:27:10;;;;;;;7.03;1.85;;;24.30;79.50;;;;;;5050099;28;20563;-66
2022/06/19 05:29:39;;;;;;;8.38;1.85;;;24.20;79.40;;;;;;5045690;28;21533;-66
2022/06/19 05:32:05;;;;;;;7.55;2.00;;;;;;;;;;5069292;28;20041;-72
2022/06/19 05:34:35;;;;;;;7.90;2.20;;;24.30;74.70;;;;;;5052583;28;20045;-68
2022/06/19 05:37:01;;;;;;;5.03;1.77;;;24.40;77.10;;;;;;5035403;28;20593;-66
2022/06/19 05:39:27;;;;;;;8.57;2.20;;;24.30;79.90;;;;;;5032239;28;20049;-65
2022/06/19 05:41:54;;;;;;;7.18;2.10;;;24.20;76.40;;;;;;5035077;28;20045;-66
2022/06/19 05:44:20;;;;;;;5.30;1.65;;;;;;;;;;5051121;28;20052;-69
2022/06/19 05:46:50;;;;;;;7.45;1.80;;;24.40;80.00;;;;;;5050398;28;20049;-66
2022/06/19 05:49:15;;;;;;;7.82;2.10;;;24.40;79.90;;;;;;5045249;28;20056;-66
2022/06/19 05:51:41;;;;;;;7.40;1.95;;;24.10;79.80;;;;;;5047057;28;20165;-66
2022/06/19 05:54:07;;;;;;;7.20;2.40;;;24.10;79.60;;;;;;5035814;28;20045;-67
2022/06/19 05:56:33;;;;;;;7.05;2.47;;;24.40;79.40;;;;;;5030768;28;20081;-66
2022/06/19 05:59:00;;;;;;;5.40;2.00;;;24.20;80.20;;;;;;5034760;28;20049;-65
2022/06/19 06:01:28;;;;;;;6.13;2.03;;;24.20;79.90;;;;;;5029269;28;20050;-65
2022/06/19 06:03:54;;;;;;;6.32;2.20;;;24.10;80.10;;;;;;5050463;28;20042;-66
2022/06/19 06:06:22;;;;;;;8.38;1.95;;;24.30;77.00;;;;;;5048866;28;20376;-73
2022/06/19 06:08:48;;;;;;;8.27;1.88;;;24.30;79.90;;;;;;5064100;28;20056;-72
2022/06/19 06:11:14;;;;;;;5.25;1.80;;;24.30;80.10;;;;;;5050273;28;20406;-66
2022/06/19 06:13:40;;;;;;;6.40;1.70;;;24.20;80.10;;;;;;5051780;28;20093;-66
2022/06/19 06:16:10;;;;;;;6.53;2.20;;;23.90;79.90;;;;;;5050156;28;20060;-65
2022/06/19 06:18:36;;;;;;;7.13;1.92;;;24.20;77.30;;;;;;5048710;28;20077;-66
2022/06/19 06:21:04;;;;;;;5.93;2.08;;;24.20;80.00;;;;;;5047565;28;20092;-67
2022/06/19 06:23:30;;;;;;;9.63;2.25;;;24.30;77.40;;;;;;5049877;28;20471;-66
2022/06/19 06:25:59;;;;;;;6.07;1.70;;;24.10;77.30;;;;;;5051465;28;20053;-66
2022/06/19 06:28:25;;;;;;;6.35;1.65;;;24.20;80.50;;;;;;5066212;28;20175;-66
2022/06/19 06:30:51;;;;;;;6.78;1.92;;;24.10;77.20;;;;;;5018665;28;20120;-66
2022/06/19 06:33:16;;;;;;;8.50;1.90;;;24.20;80.20;;;;;;5031289;28;20053;-66
2022/06/19 06:35:42;;;;;;;5.97;1.92;;;24.20;76.90;;;;;;5051460;28;20461;-72
2022/06/19 06:38:08;;;;;;;7.53;2.22;;;;;;;;;;5049884;28;20127;-70
2022/06/19 06:40:34;;;;;;;6.15;1.80;;;24.30;80.50;;;;;;5050313;28;20053;-70
2022/06/19 06:43:00;;;;;;;7.05;1.92;;;24.10;77.20;;;;;;5047705;28;20410;-66
2022/06/19 06:45:25;;;;;;;6.60;2.13;;;23.90;80.00;;;;;;5033930;28;20128;-67
2022/06/19 06:47:51;;;;;;;9.00;2.47;;;24.00;80.10;;;;;;5047883;28;21550;-67
2022/06/19 06:50:17;;;;;;;6.63;2.00;;;24.20;80.40;;;;;;5035699;28;20052;-68
2022/06/19 06:52:43;;;;;;;7.43;2.03;;;24.20;80.40;;;;;;5031590;28;20078;-67
2022/06/19 06:55:09;;;;;;;7.60;1.85;;;24.30;80.40;;;;;;5028627;28;20042;-67
2022/06/19 06:57:35;;;;;;;8.25;1.95;;;24.10;80.70;;;;;;5068335;28;20055;-66
2022/06/19 07:00:01;;;;;;;8.85;2.22;;;24.10;80.60;;;;;;5035894;28;20044;-67
2022/06/19 07:02:26;;;;;;;6.20;1.88;;;24.20;77.70;;;;;;5047929;28;20052;-67
2022/06/19 07:04:52;;;;;;;11.38;2.00;;;24.20;81.50;;;;;;5052589;28;20124;-67
2022/06/19 07:07:18;;;;;;;9.93;2.38;;;24.00;80.50;;;;;;5049118;28;20041;-68
2022/06/19 07:09:44;;;;;;;6.75;2.22;;;24.20;77.60;;;;;;5052507;28;20053;-72
2022/06/19 07:12:10;;;;;;;7.55;2.00;;;24.30;81.20;;;;;;5049953;28;20068;-67
2022/06/19 07:14:36;;;;;;;7.70;1.90;;;24.00;80.60;;;;;;5035173;28;20052;-67
2022/06/19 07:17:02;;;;;;;8.65;2.67;;;24.00;80.70;;;;;;5052072;28;20044;-70
2022/06/19 07:19:27;;;;;;;8.43;2.05;;;24.00;80.70;;;;;;5013838;28;20492;-68
2022/06/19 07:21:53;;;;;;;6.72;2.03;;;24.10;80.80;;;;;;5035172;28;20483;-67
2022/06/19 07:24:19;;;;;;;7.82;2.08;;;24.10;81.10;;;;;;5052036;28;20041;-66
2022/06/19 07:26:45;;;;;;;9.15;1.90;;;24.30;80.80;;;;;;5049224;28;20728;-68
2022/06/19 07:29:11;;;;;;;6.90;2.05;;;24.00;80.70;;;;;;5050349;28;20088;-67
2022/06/19 07:31:37;;;;;;;7.00;2.05;;;24.20;77.90;;;;;;5051168;28;20057;-68
2022/06/19 07:34:03;;;;;;;8.00;2.42;;;24.20;77.90;;;;;;5054030;28;20391;-70
2022/06/19 07:36:29;;;;;;;8.32;2.00;;;24.00;78.00;;;;;;5053753;28;20045;-71
2022/06/19 07:38:56;;;;;;;5.57;1.67;;;24.00;80.70;;;;;;5051420;28;20175;-69
2022/06/19 07:41:21;;;;;;;8.57;2.03;;;23.90;80.80;;;;;;5050382;28;20101;-75
2022/06/19 07:43:50;;;;;;;4.43;1.50;;;24.10;80.70;;;;;;5039976;28;20128;-73
2022/06/19 07:46:16;;;;;;;7.43;1.80;;;24.10;81.00;;;;;;5016970;28;20120;-74
2022/06/19 07:51:27;;;;;;;8.23;2.10;;;24.00;80.70;;;;;;5037948;28;20537;-71
2022/06/19 07:53:52;;;;;;;6.47;2.75;;;24.10;77.70;;;;;;5053537;28;20049;-69
2022/06/19 07:56:18;;;;;;;7.55;1.90;;;24.10;81.10;;;;;;5053561;28;20114;-70
2022/06/19 07:58:44;;;;;;;7.00;1.95;;;24.40;80.10;;;;;;5034230;28;20049;-68
2022/06/19 08:01:10;;;;;;;10.38;2.08;;;24.20;77.20;;;;;;5050642;28;20462;-69
2022/06/19 08:03:36;;;;;;;9.32;2.00;;;24.30;80.20;;;;;;5050036;28;20032;-67
2022/06/19 08:06:01;;;;;;;7.70;2.28;;;24.00;80.10;;;;;;5053116;28;20478;-67
2022/06/19 08:08:28;;;;;;;10.43;2.10;;;24.20;77.20;;;;;;5051902;28;20052;-67
2022/06/19 08:10:55;;;;;;;11.85;2.47;;;24.20;80.40;;;;;;5051873;28;20116;-67
2022/06/19 08:13:22;;;;;;;6.70;2.00;;;24.00;80.00;;;;;;5051217;28;20106;-67
2022/06/19 08:15:52;;;;;;;7.75;1.80;;;23.90;80.00;;;;;;5051218;28;20053;-67
2022/06/19 08:18:18;;;;;;;10.95;2.20;;;24.20;80.30;;;;;;5051823;28;20072;-67
2022/06/19 08:20:44;;;;;;;8.60;1.83;;;24.10;76.70;;;;;;5042147;28;20061;-68
2022/06/19 08:23:10;;;;;;;8.40;2.67;;;24.10;77.20;;;;;;5033394;28;20050;-68
2022/06/19 08:25:37;;;;;;;10.00;2.22;;;24.20;77.00;;;;;;5043905;28;20037;-68
2022/06/19 08:28:02;;;;;;;8.05;2.53;;;24.20;77.20;;;;;;5053091;28;20383;-72
2022/06/19 08:30:31;;;;;;;7.18;2.00;;;24.20;76.80;;;;;;5051705;28;20056;-75
2022/06/19 08:32:56;;;;;;;8.35;2.10;;;24.20;77.10;;;;;;5052051;28;20041;-75
2022/06/19 08:35:22;;;;;;;7.03;1.63;;;24.20;76.90;;;;;;5050464;28;20041;-72
2022/06/19 08:37:52;;;;;;;10.95;2.10;;;24.50;76.80;;;;;;5040199;28;20052;-69
2022/06/19 08:40:33;;;;;;;8.57;2.22;;;24.20;79.70;;;;;;5035932;28;20037;-67
2022/06/19 08:43:09;;;;;;;7.00;2.10;;;24.10;79.50;;;;;;5037060;28;20446;-66
2022/06/19 08:45:57;;;;;;;9.27;1.95;;;23.90;79.40;;;;;;5051906;28;20098;-66
2022/06/19 08:48:58;;;;;;;9.18;1.95;;;24.20;75.50;;;;;;5075169;28;20135;-69
2022/06/19 08:51:53;;;;;;;8.20;2.55;;;24.20;76.50;;;;;;5044869;28;20041;-69
2022/06/19 08:54:23;;;;;;;6.57;1.88;;;24.20;79.60;;;;;;4989447;28;20058;-67
2022/06/19 08:57:04;;;;;;;9.85;2.30;;;24.00;79.20;;;;;;5014856;28;20514;-74
2022/06/19 08:59:47;;;;;;;8.32;2.08;;;24.30;79.30;;;;;;5001844;28;20063;-71
2022/06/19 09:02:34;;;;;;;9.85;1.90;;;24.30;75.30;;;;;;5017693;28;20059;-71
2022/06/19 09:05:39;;;;;;;7.55;1.90;;;24.40;79.10;;;;;;4992128;28;20076;-76
2022/06/19 09:08:05;;;;;;;8.80;2.78;;;;;;;;;;5032967;28;20454;-68
2022/06/19 09:10:58;;;;;;;7.03;1.98;;;24.30;79.10;;;;;;5033841;28;20075;-68
2022/06/19 09:14:00;;;;;;;7.32;1.80;;;24.10;75.20;;;;;;5017723;28;20081;-66
2022/06/19 09:16:37;;;;;;;7.78;1.95;;;24.30;74.90;;;;;;5017073;28;20454;-67
2022/06/19 09:19:24;;;;;;;8.38;2.03;;;24.20;78.80;;;;;;5015700;28;20049;-72
2022/06/19 09:21:52;;;;;;;8.73;1.83;;;24.20;79.10;;;;;;5006152;28;20078;-75
2022/06/19 09:24:41;;;;;;;8.35;2.20;;;24.20;78.50;;;;;;5019899;28;20045;-70
2022/06/19 09:27:07;;;;;;;7.60;2.20;;;24.40;78.50;;;;;;5038358;28;20053;-68
2022/06/19 09:29:48;;;;;;;6.80;1.80;;;24.00;78.30;;;;;;5019770;28;20515;-67
2022/06/19 09:32:16;;;;;;;8.95;2.25;;;24.20;78.40;;;;;;5061240;28;20053;-68
2022/06/19 09:35:05;;;;;;;7.03;2.15;;;24.40;75.30;;;;;;5045974;28;20049;-67
2022/06/19 09:37:53;;;;;;;7.80;2.15;;;24.20;74.30;;;;;;5050997;28;20061;-67
2022/06/19 09:40:28;;;;;;;6.30;1.48;;;24.40;78.40;;;;;;5044015;28;20040;-69
2022/06/19 09:43:03;;;;;;;9.38;2.15;;;24.20;78.50;;;;;;5044430;28;20048;-67
2022/06/19 09:45:36;;;;;;;6.32;1.83;;;24.20;78.40;;;;;;5043524;28;20450;-71
2022/06/19 09:48:10;;;;;;;10.80;2.15;;;24.30;78.10;;;;;;5046109;28;20473;-67
2022/06/19 09:50:59;;;;;;;7.97;1.60;;;24.20;77.80;;;;;;5046526;28;20128;-75
2022/06/19 09:53:30;;;;;;;6.90;1.48;;;24.00;78.10;;;;;;5042585;28;20048;-85
2022/06/19 09:56:16;;;;;;;8.48;1.90;;;24.10;78.30;;;;;;5077948;28;20049;-72
2022/06/19 09:58:54;;;;;;;10.85;1.90;;;23.90;78.20;;;;;;5061859;28;20048;-75
2022/06/19 10:01:20;;;;;;;6.30;1.70;;;24.00;78.10;;;;;;5074977;28;20060;-66
2022/06/19 10:03:58;;;;;;;6.60;2.10;;;24.00;78.10;;;;;;5045803;28;20041;-80
2022/06/19 10:06:53;;;;;;;8.23;1.80;;;24.10;78.00;;;;;;5059852;28;20057;-68
2022/06/19 10:09:27;;;;;;;7.05;1.88;;;24.20;75.50;;;;;;5059830;28;20056;-67
2022/06/19 10:11:56;;;;;;;5.65;1.60;;;23.80;77.20;;;;;;5054275;28;20057;-75
2022/06/19 10:14:27;;;;;;;3.85;1.13;;;23.80;77.10;;;;;;5030318;28;20071;-66
2022/06/19 10:17:16;;;;;;;3.35;0.90;;;23.90;77.20;;;;;;5051062;28;20047;-66
2022/06/19 10:20:16;;;;;;;8.13;1.80;;;23.90;77.20;;;;;;5040862;28;20458;-75
2022/06/19 10:22:56;;;;;;;7.15;1.88;;;23.70;74.10;;;;;;5028561;28;20064;-76
2022/06/19 10:25:46;;;;;;;4.25;1.23;;;23.50;77.10;;;;;;5033337;28;20761;-69
2022/06/19 10:28:21;;;;;;;9.60;2.08;;;23.60;77.30;;;;;;5051953;28;20475;-68
2022/06/19 10:30:54;;;;;;;5.93;1.27;;;23.30;77.90;;;;;;5049318;28;20040;-71
2022/06/19 10:33:49;;;;;;;5.53;1.38;;;23.40;77.90;;;;;;5035396;28;20048;-82
2022/06/19 10:36:44;;;;;;;7.32;1.92;;;23.40;77.40;;;;;;5030368;28;20110;-78
2022/06/19 10:39:52;;;;;;;4.45;1.50;;;23.50;77.40;;;;;;5014568;28;20207;-78
2022/06/19 10:42:27;;;;;;;3.70;1.13;;;23.70;77.40;;;;;;5034141;28;20052;-69
2022/06/19 10:44:56;;;;;;;6.00;1.60;;;23.70;77.30;;;;;;5049763;28;20052;-69
2022/06/19 10:47:22;;;;;;;4.25;1.15;;;23.90;77.20;;;;;;5049763;28;20060;-79
2022/06/19 10:50:04;;;;;;;4.90;1.60;;;23.90;77.10;;;;;;5053006;28;20049;-68
2022/06/19 10:53:17;;;;;;;6.68;1.50;;;23.90;76.90;;;;;;5050832;28;20049;-80
2022/06/19 10:56:00;;;;;;;6.15;1.27;;;24.20;77.00;;;;;;5021168;28;20057;-80
2022/06/19 10:58:28;;;;;;;3.47;0.90;;;24.20;76.70;;;;;;5068521;28;20063;-68
2022/06/19 11:00:59;;;;;;;5.88;1.58;;;23.90;76.20;;;;;;5034947;28;20132;-68
2022/06/19 11:04:07;;;;;;;6.13;1.50;;;24.30;76.40;;;;;;5037115;28;20037;-67
2022/06/19 11:06:54;;;;;;;5.55;1.35;;;24.10;76.20;;;;;;5035167;28;20060;-70
2022/06/19 11:09:32;;;;;;;3.35;1.02;;;23.80;76.20;;;;;;5058292;28;20044;-71
2022/06/19 11:12:22;;;;;;;6.90;1.40;;;23.80;73.80;;;;;;5029719;28;20514;-67
2022/06/19 11:14:59;;;;;;;4.47;1.08;;;23.70;76.50;;;;;;5051463;28;20368;-67
2022/06/19 11:17:34;;;;;;;2.50;0.98;;;23.60;73.40;;;;;;5031973;28;20055;-73
2022/06/19 11:20:17;;;;;;;3.13;0.98;;;23.70;76.60;;;;;;5032780;28;20065;-77
2022/06/19 11:22:47;;;;;;;3.47;0.90;;;23.30;76.60;;;;;;5034775;28;20123;-70
2022/06/19 11:25:36;;;;;;;3.70;1.17;;;23.40;76.70;;;;;;5035074;28;20450;-78
2022/06/19 11:28:15;;;;;;;3.92;1.02;;;23.30;77.00;;;;;;5050163;28;20056;-66
2022/06/19 11:30:52;;;;;;;2.88;0.95;;;23.40;77.00;;;;;;5018667;28;20048;-77
2022/06/19 11:33:34;;;;;;;4.03;0.93;;;23.30;77.40;;;;;;5052717;28;20444;-70
2022/06/19 11:36:01;;;;;;;;;;;23.40;75.10;;;;;;5060786;28;20051;-69
2022/06/19 11:38:40;;;;;;;13.10;2.25;;;23.20;77.40;;;;;;5028472;28;19924;-77
2022/06/19 11:41:18;;;;;;;11.68;2.17;;;23.10;77.40;;;;;;5056219;28;20181;-76
2022/06/19 11:43:44;;;;;;;5.97;1.20;;;23.10;77.40;;;;;;5073976;28;20518;-75
2022/06/19 11:46:24;;;;;;;3.83;0.85;;;23.20;77.50;;;;;;5064926;28;20045;-74
2022/06/19 11:48:50;;;;;;;4.22;1.23;;;23.10;77.70;;;;;;5076447;28;20402;-74
2022/06/19 11:51:18;;;;;;;4.38;0.77;;;22.70;77.60;;;;;;5041489;28;20045;-75
2022/06/19 11:53:44;;;;;;;3.75;1.02;;;22.70;77.70;;;;;;5059180;28;20048;-68
2022/06/19 11:56:25;;;;;;;4.25;1.17;;;22.90;78.00;;;;;;5061363;28;20040;-80
2022/06/19 11:58:56;;;;;;;4.18;0.90;;;22.70;78.10;;;;;;5060350;28;20057;-79
2022/06/19 12:01:21;;;;;;;5.53;1.10;;;22.80;78.50;;;;;;5046713;28;20130;-69
2022/06/19 12:03:55;;;;;;;4.25;1.20;;;22.70;78.50;;;;;;5050826;28;20072;-83
2022/06/19 12:06:45;;;;;;;5.38;1.20;;;22.70;78.70;;;;;;5052164;28;20044;-83
2022/06/19 12:09:26;;;;;;;6.43;1.00;;;22.60;79.00;;;;;;5033079;28;20123;-69
2022/06/19 12:12:06;;;;;;;5.60;1.20;;;22.40;74.20;;;;;;5054793;28;20496;-72
2022/06/19 12:14:35;;;;;;;2.40;0.80;;;22.60;78.20;;;;;;5064379;28;20056;-68
2022/06/19 12:17:32;;;;;;;3.05;1.08;;;22.40;79.10;;;;;;5063614;28;20059;-67
2022/06/19 12:20:17;;;;;;;2.85;0.90;;;22.40;79.00;;;;;;5042652;28;20041;-69
2022/06/19 12:23:02;;;;;;;4.57;1.10;;;22.50;76.60;;;;;;5021086;28;20053;-69
2022/06/19 12:25:28;;;;;;;2.83;0.93;;;22.40;79.30;;;;;;5028393;28;20596;-75
2022/06/19 12:28:24;;;;;;;3.83;1.23;;;22.40;75.30;;;;;;5026223;28;20080;-80
2022/06/19 12:30:57;;;;;;;2.20;0.93;;;22.10;78.10;;;;;;5019205;28;20439;-81
2022/06/19 12:33:32;;;;;;;4.03;1.10;;;22.30;75.00;;;;;;5003181;28;20430;-67
2022/06/19 12:36:01;;;;;;;3.40;1.20;;;22.20;79.90;;;;;;5003756;28;20045;-70
2022/06/19 12:38:31;;;;;;;4.43;0.93;;;22.50;80.10;;;;;;5009266;28;20486;-67
2022/06/19 12:41:31;;;;;;;5.55;1.42;;;22.40;80.30;;;;;;4988239;28;20050;-69
2022/06/19 12:44:18;;;;;;;8.00;1.80;;;22.50;80.20;;;;;;4982932;28;20065;-65
2022/06/19 12:47:18;;;;;;;3.90;1.00;;;22.40;80.20;;;;;;4978339;28;20381;-68
2022/06/19 12:49:49;;;;;;;4.38;1.13;;;22.70;75.60;;;;;;4995284;28;20086;-68
2022/06/19 12:52:19;;;;;;;3.92;0.90;;;22.50;77.70;;;;;;4994780;28;20088;-67
2022/06/19 12:55:06;;;;;;;4.05;1.30;;;22.80;80.20;;;;;;4977787;28;20465;-67
2022/06/19 12:57:53;;;;;;;2.40;0.90;;;22.80;80.50;;;;;;4980478;28;20524;-67
2022/06/19 13:00:37;;;;;;;3.60;0.88;;;23.00;80.00;;;;;;4978749;28;20074;-67
2022/06/19 13:03:26;;;;;;;3.55;1.20;;;22.90;79.70;;;;;;4977995;28;20420;-67
2022/06/19 13:06:07;;;;;;;6.60;1.30;;;23.00;80.20;;;;;;4960661;28;20066;-67
2022/06/19 13:09:00;;;;;;;6.07;1.73;;;23.30;79.70;;;;;;4963647;28;20054;-68
2022/06/19 13:11:31;;;;;;;;;;;23.30;76.00;;;;;;4979099;28;20046;-74
2022/06/19 13:14:12;;;;;;;6.15;1.83;;;23.20;79.50;;;;;;4977692;28;20008;-75
2022/06/19 13:16:46;;;;;;;5.70;1.80;;;23.30;79.40;;;;;;4973316;28;20137;-68